createdAt,value
2019-04-07T00:00:14.313Z,35.03
2019-04-07T00:02:44.071Z,29.27
2019-04-07T00:05:14.642Z,28.37
2019-04-07T00:07:44.909Z,28.03
2019-04-07T00:10:15.496Z,28.17
2019-04-07T00:12:45.101Z,28.60
2019-04-07T00:15:14.543Z,27.97
2019-04-07T00:17:44.173Z,27.60
2019-04-07T00:20:13.888Z,37.83
2019-04-07T00:22:43.807Z,46.07
2019-04-07T00:25:13.482Z,39.13
2019-04-07T00:27:43.098Z,31.03
2019-04-07T00:30:14.535Z,32.00
2019-04-07T00:32:44.307Z,30.90
2019-04-07T00:35:23.174Z,30.83
2019-04-07T00:37:44.869Z,29.23
2019-04-07T00:40:14.574Z,31.17
2019-04-07T00:42:44.620Z,31.27
2019-04-07T00:45:14.112Z,30.77
2019-04-07T00:47:43.955Z,31.33
2019-04-07T00:50:14.155Z,30.30
2019-04-07T00:52:43.894Z,29.90
2019-04-07T00:55:13.218Z,28.73
2019-04-07T00:57:42.994Z,29.70
2019-04-07T01:00:13.569Z,29.93
2019-04-07T01:02:43.127Z,30.23
2019-04-07T01:05:12.716Z,28.97
2019-04-07T01:07:42.370Z,30.07
2019-04-07T01:10:14.092Z,29.50
2019-04-07T01:12:44.558Z,31.23
2019-04-07T01:15:14.060Z,31.53
2019-04-07T01:17:43.614Z,29.90
2019-04-07T01:20:14.067Z,41.00
2019-04-07T01:22:43.953Z,62.70
2019-04-07T01:25:13.816Z,64.43
2019-04-07T01:27:43.974Z,35.50
2019-04-07T01:30:14.264Z,32.20
2019-04-07T01:32:44.550Z,31.67
2019-04-07T01:35:14.613Z,30.97
2019-04-07T01:37:44.567Z,31.13
2019-04-07T01:40:14.497Z,30.77
2019-04-07T01:42:51.022Z,30.20
2019-04-07T01:45:32.186Z,32.07
2019-04-07T01:48:20.517Z,30.57
2019-04-07T01:51:08.144Z,30.83
2019-04-07T01:53:56.379Z,29.67
2019-04-07T01:56:50.657Z,31.70
2019-04-07T01:59:39.189Z,30.87
2019-04-07T02:02:26.879Z,30.90
2019-04-07T02:05:05.608Z,30.37
2019-04-07T02:07:43.573Z,30.53
2019-04-07T02:10:27.352Z,31.03
2019-04-07T02:13:15.458Z,31.30
2019-04-07T02:15:53.624Z,31.50
2019-04-07T02:18:32.892Z,29.47
2019-04-07T02:21:08.628Z,29.97
2019-04-07T02:23:56.858Z,30.50
2019-04-07T02:26:33.215Z,32.30
2019-04-07T02:29:21.206Z,31.87
2019-04-07T02:31:58.603Z,33.03
2019-04-07T02:34:38.410Z,32.50
2019-04-07T02:37:17.529Z,31.23
2019-04-07T02:39:54.917Z,31.70
2019-04-07T02:42:42.681Z,30.70
2019-04-07T02:45:28.824Z,32.33
2019-04-07T02:48:20.682Z,31.87
2019-04-07T02:51:06.131Z,32.23
2019-04-07T02:53:46.996Z,32.43
2019-04-07T02:56:25.261Z,31.77
2019-04-07T02:59:14.542Z,32.20
2019-04-07T03:02:18.490Z,32.03
2019-04-07T03:05:09.504Z,31.03
2019-04-07T03:07:54.953Z,30.13
2019-04-07T03:10:39.454Z,30.27
2019-04-07T03:13:27.110Z,29.93
2019-04-07T03:16:07.630Z,31.83
2019-04-07T03:18:52.646Z,31.27
2019-04-07T03:21:32.969Z,32.13
2019-04-07T03:24:21.884Z,29.67
2019-04-07T03:27:17.856Z,30.43
2019-04-07T03:30:09.400Z,31.37
2019-04-07T03:33:00.162Z,30.57
2019-04-07T03:35:34.897Z,30.37
2019-04-07T03:38:22.318Z,29.57
2019-04-07T03:41:16.873Z,31.87
2019-04-07T03:43:55.050Z,31.80
2019-04-07T03:46:42.912Z,31.07
2019-04-07T03:49:31.373Z,30.07
2019-04-07T03:52:19.445Z,30.80
2019-04-07T03:55:21.907Z,30.40
2019-04-07T03:58:16.775Z,31.70
2019-04-07T04:01:22.928Z,32.87
2019-04-07T04:04:05.587Z,31.03
2019-04-07T04:06:54.510Z,31.93
2019-04-07T04:09:31.126Z,31.17
2019-04-07T04:12:21.261Z,31.13
2019-04-07T04:14:55.319Z,30.93
2019-04-07T04:17:25.125Z,31.50
2019-04-07T04:19:55.184Z,29.53
2019-04-07T04:22:24.578Z,31.03
2019-04-07T04:24:54.166Z,31.87
2019-04-07T04:27:23.820Z,30.63
2019-04-07T04:29:54.988Z,30.10
2019-04-07T04:32:25.536Z,31.90
2019-04-07T04:34:56.250Z,29.90
2019-04-07T04:37:37.543Z,30.70
2019-04-07T04:39:57.414Z,29.60
2019-04-07T04:42:26.899Z,30.37
2019-04-07T04:44:56.635Z,30.60
2019-04-07T04:47:27.390Z,30.67
2019-04-07T04:49:57.726Z,31.40
2019-04-07T04:52:27.754Z,30.57
2019-04-07T04:54:58.203Z,30.83
2019-04-07T04:57:28.267Z,30.70
2019-04-07T04:59:58.058Z,29.90
2019-04-07T05:02:27.748Z,29.47
2019-04-07T05:04:57.503Z,28.37
2019-04-07T05:07:26.829Z,26.27
2019-04-07T05:09:56.815Z,26.27
2019-04-07T05:12:26.211Z,23.23
2019-04-07T05:14:55.968Z,24.20
2019-04-07T05:17:26.011Z,23.47
2019-04-07T05:19:56.511Z,22.20
2019-04-07T05:22:26.759Z,22.63
2019-04-07T05:24:56.645Z,22.97
2019-04-07T05:27:27.559Z,21.10
2019-04-07T05:29:57.362Z,22.30
2019-04-07T05:32:27.127Z,22.33
2019-04-07T05:34:56.840Z,19.87
2019-04-07T05:37:28.339Z,20.87
2019-04-07T05:39:57.973Z,21.37
2019-04-07T05:42:27.857Z,21.37
2019-04-07T05:44:57.074Z,20.37
2019-04-07T05:47:26.699Z,21.07
2019-04-07T05:49:58.789Z,20.83
2019-04-07T05:52:27.289Z,19.70
2019-04-07T05:54:57.790Z,20.90
2019-04-07T05:57:30.807Z,21.37
2019-04-07T05:59:59.237Z,19.80
2019-04-07T06:02:31.291Z,20.27
2019-04-07T06:05:01.185Z,20.83
2019-04-07T06:07:34.844Z,20.93
2019-04-07T06:10:03.458Z,21.30
2019-04-07T06:12:32.914Z,20.23
2019-04-07T06:15:02.155Z,20.97
2019-04-07T06:17:31.512Z,21.37
2019-04-07T06:20:01.461Z,21.53
2019-04-07T06:22:31.392Z,20.80
2019-04-07T06:25:03.853Z,20.27
2019-04-07T06:27:32.609Z,19.43
2019-04-07T06:30:02.534Z,18.37
2019-04-07T06:32:35.216Z,22.80
2019-04-07T06:35:04.069Z,18.90
2019-04-07T06:37:33.324Z,19.80
2019-04-07T06:40:02.644Z,19.83
2019-04-07T06:42:34.100Z,17.67
2019-04-07T06:45:04.051Z,19.13
2019-04-07T06:47:42.188Z,18.37
2019-04-07T06:50:47.550Z,18.23
2019-04-07T06:53:38.166Z,17.90
2019-04-07T06:56:16.413Z,18.13
2019-04-07T06:59:11.878Z,19.53
2019-04-07T07:01:59.174Z,17.70
2019-04-07T07:04:39.705Z,18.90
2019-04-07T07:07:41.417Z,16.97
2019-04-07T07:10:29.624Z,19.17
2019-04-07T07:13:20.702Z,16.83
2019-04-07T07:15:58.555Z,17.47
2019-04-07T07:19:06.382Z,18.33
2019-04-07T07:21:41.378Z,17.95
2019-04-07T07:24:12.318Z,17.95
2019-04-07T07:26:42.927Z,17.48
2019-04-07T07:29:15.263Z,17.10
2019-04-07T07:31:45.227Z,18.07
2019-04-07T07:34:15.671Z,16.93
2019-04-07T07:36:47.069Z,16.17
2019-04-07T07:39:17.750Z,16.12
2019-04-07T07:41:50.368Z,16.55
2019-04-07T07:44:18.846Z,17.40
2019-04-07T07:46:49.892Z,16.50
2019-04-07T07:49:20.404Z,16.20
2019-04-07T07:51:50.552Z,17.52
2019-04-07T07:54:20.721Z,17.60
2019-04-07T07:56:51.456Z,17.77
2019-04-07T07:59:21.795Z,18.00
2019-04-07T08:01:52.589Z,17.17
2019-04-07T08:04:24.818Z,17.90
2019-04-07T08:06:53.402Z,17.30
2019-04-07T08:09:25.201Z,16.57
2019-04-07T08:11:54.431Z,16.20
2019-04-07T08:14:24.495Z,16.77
2019-04-07T08:16:54.390Z,17.40
2019-04-07T08:19:27.876Z,16.73
2019-04-07T08:21:55.087Z,16.63
2019-04-07T08:24:24.985Z,15.63
2019-04-07T08:26:57.124Z,16.83
2019-04-07T08:29:25.784Z,18.67
2019-04-07T08:31:55.464Z,28.80
2019-04-07T08:34:25.490Z,29.10
2019-04-07T08:36:54.839Z,19.50
2019-04-07T08:39:26.951Z,17.83
2019-04-07T08:41:56.063Z,19.40
2019-04-07T08:44:28.689Z,18.50
2019-04-07T08:46:58.200Z,20.10
2019-04-07T08:49:27.851Z,17.63
2019-04-07T08:51:58.269Z,17.83
2019-04-07T08:54:29.577Z,19.37
2019-04-07T08:57:00.223Z,20.00
2019-04-07T08:59:30.295Z,20.73
2019-04-07T09:02:00.148Z,18.67
2019-04-07T09:04:30.832Z,20.13
2019-04-07T09:07:02.360Z,20.97
2019-04-07T09:09:35.835Z,20.50
2019-04-07T09:12:01.899Z,19.40
2019-04-07T09:14:31.503Z,18.87
2019-04-07T09:17:13.696Z,19.83
2019-04-07T09:20:10.577Z,18.27
2019-04-07T09:22:59.113Z,19.07
2019-04-07T09:26:03.441Z,18.57
2019-04-07T09:28:37.878Z,20.37
2019-04-07T09:31:25.423Z,17.87
2019-04-07T09:34:21.971Z,19.43
2019-04-07T09:37:18.365Z,19.97
2019-04-07T09:40:05.123Z,35.17
2019-04-07T09:42:56.361Z,35.50
2019-04-07T09:45:38.603Z,19.30
2019-04-07T09:48:24.019Z,18.33
2019-04-07T09:51:06.880Z,18.47
2019-04-07T09:53:52.154Z,16.90
2019-04-07T09:56:39.565Z,18.73
2019-04-07T09:59:19.309Z,17.40
2019-04-07T10:02:01.056Z,17.20
2019-04-07T10:04:42.246Z,19.10
2019-04-07T10:23:09.459Z,20.13
2019-04-07T10:25:52.680Z,21.33
2019-04-07T10:28:27.711Z,23.23
2019-04-07T11:01:00.975Z,30.00
2019-04-07T11:03:46.004Z,20.07
2019-04-07T11:06:38.363Z,20.33
2019-04-07T11:09:59.061Z,22.13
2019-04-07T11:18:54.876Z,19.40
2019-04-07T11:21:42.812Z,18.77
2019-04-07T11:27:36.547Z,19.80
2019-04-07T11:31:17.917Z,19.13
2019-04-07T11:34:12.934Z,18.93
2019-04-07T11:37:15.529Z,18.00
2019-04-07T11:53:59.872Z,17.77
2019-04-07T12:10:24.305Z,17.50
2019-04-07T12:34:58.881Z,14.83
2019-04-07T12:37:41.028Z,14.97
2019-04-07T12:40:27.956Z,16.47
2019-04-07T12:43:48.607Z,17.13
2019-04-07T12:46:41.785Z,15.80
2019-04-07T12:49:23.166Z,16.30
2019-04-07T12:52:11.742Z,15.80
2019-04-07T12:54:56.868Z,15.90
2019-04-07T12:57:39.418Z,16.43
2019-04-07T13:00:22.652Z,16.13
2019-04-07T13:03:18.504Z,15.60
2019-04-07T13:06:10.715Z,15.47
2019-04-07T13:08:58.273Z,16.40
2019-04-07T13:11:37.224Z,17.37
2019-04-07T13:18:37.798Z,16.37
2019-04-07T13:25:09.792Z,17.23
2019-04-07T13:28:14.136Z,17.30
2019-04-07T14:28:59.886Z,19.63
2019-04-07T15:25:27.609Z,18.80
2019-04-07T15:28:00.107Z,18.47
2019-04-07T15:30:31.990Z,19.30
2019-04-07T15:33:03.062Z,18.87
2019-04-07T15:35:34.177Z,17.63
2019-04-07T15:38:05.390Z,17.80
2019-04-07T15:40:36.710Z,17.80
2019-04-07T15:43:09.137Z,17.17
2019-04-07T15:45:42.769Z,17.90
2019-04-07T15:48:12.459Z,16.37
2019-04-07T15:50:45.656Z,17.10
2019-04-07T15:53:16.417Z,17.73
2019-04-07T15:55:54.633Z,18.70
2019-04-07T15:58:20.256Z,18.70
2019-04-07T16:00:52.281Z,18.33
2019-04-07T16:03:24.512Z,17.97
2019-04-07T16:05:59.101Z,18.03
2019-04-07T16:08:33.810Z,17.43
2019-04-07T16:11:09.299Z,17.83
2019-04-07T16:13:42.461Z,18.60
2019-04-07T16:16:12.005Z,17.90
2019-04-07T16:18:43.323Z,18.13
2019-04-07T16:21:12.651Z,18.17
2019-04-07T16:23:42.918Z,20.33
2019-04-07T16:26:12.582Z,18.63
2019-04-07T16:28:45.412Z,18.73
2019-04-07T16:31:13.318Z,32.83
2019-04-07T16:33:45.391Z,19.07
2019-04-07T16:36:14.953Z,19.47
2019-04-07T16:38:45.480Z,18.67
2019-04-07T16:41:15.043Z,19.93
2019-04-07T16:43:45.733Z,24.30
2019-04-07T16:46:20.377Z,22.03
2019-04-07T16:48:49.058Z,22.57
2019-04-07T16:51:18.297Z,20.20
2019-04-07T16:53:47.885Z,20.10
2019-04-07T16:56:20.103Z,21.20
2019-04-07T16:58:49.051Z,19.53
2019-04-07T17:01:18.551Z,20.00
2019-04-07T17:03:48.828Z,19.87
2019-04-07T17:06:18.205Z,20.57
2019-04-07T17:08:47.367Z,20.60
2019-04-07T17:11:18.074Z,19.93
2019-04-07T17:13:47.788Z,20.77
2019-04-07T17:16:22.132Z,19.23
2019-04-07T17:18:49.712Z,20.50
2019-04-07T17:21:20.439Z,19.00
2019-04-07T17:23:53.309Z,20.43
2019-04-07T17:26:23.363Z,21.43
2019-04-07T17:28:52.863Z,19.77
2019-04-07T17:31:23.978Z,20.50
2019-04-07T17:33:55.847Z,21.73
2019-04-07T17:36:25.888Z,22.30
2019-04-07T17:39:09.492Z,21.33
2019-04-07T17:41:39.093Z,20.30
2019-04-07T17:44:30.951Z,21.27
2019-04-07T17:47:16.081Z,22.37
2019-04-07T17:50:01.080Z,21.90
2019-04-07T17:52:42.417Z,22.00
2019-04-07T17:55:29.902Z,22.53
2019-04-07T17:58:18.996Z,22.53
2019-04-07T18:01:28.638Z,22.70
2019-04-07T18:04:11.387Z,29.20
2019-04-07T18:07:02.005Z,24.03
2019-04-07T18:09:52.366Z,22.97
2019-04-07T18:12:49.795Z,27.47
2019-04-07T18:15:41.787Z,22.53
2019-04-07T18:18:28.835Z,24.23
2019-04-07T18:21:21.015Z,23.60
2019-04-07T18:24:22.706Z,21.60
2019-04-07T18:27:04.311Z,22.70
2019-04-07T18:29:40.647Z,22.67
2019-04-07T18:32:27.521Z,22.67
2019-04-07T18:35:15.248Z,22.90
2019-04-07T18:37:58.971Z,22.50
2019-04-07T18:40:36.117Z,23.67
2019-04-07T18:43:28.990Z,22.37
2019-04-07T18:46:24.747Z,46.30
2019-04-07T18:49:12.199Z,40.67
2019-04-07T18:51:50.749Z,27.27
2019-04-07T18:54:38.841Z,25.20
2019-04-07T18:57:37.156Z,25.87
2019-04-07T19:00:17.558Z,26.17
2019-04-07T19:02:59.240Z,26.90
2019-04-07T19:05:38.129Z,27.70
2019-04-07T19:08:20.375Z,27.20
2019-04-07T19:11:15.515Z,27.37
2019-04-07T19:14:14.133Z,27.00
2019-04-07T19:16:49.259Z,28.17
2019-04-07T19:19:33.721Z,33.27
2019-04-07T19:22:25.787Z,30.27
2019-04-07T19:25:19.273Z,29.53
2019-04-07T19:28:09.443Z,31.20
2019-04-07T19:30:50.082Z,30.73
2019-04-07T19:33:39.721Z,30.20
2019-04-07T19:36:22.966Z,36.93
2019-04-07T19:39:02.979Z,31.37
2019-04-07T19:41:46.884Z,29.27
2019-04-07T19:44:37.085Z,29.77
2019-04-07T19:47:22.676Z,30.60
2019-04-07T19:50:02.807Z,29.67
2019-04-07T19:52:44.795Z,29.60
2019-04-07T19:55:26.617Z,30.57
2019-04-07T19:58:04.119Z,31.43
2019-04-07T20:01:00.115Z,30.83
2019-04-07T20:03:59.762Z,33.27
2019-04-07T20:06:48.440Z,31.57
2019-04-07T20:09:39.531Z,32.33
2019-04-07T20:12:16.379Z,32.27
2019-04-07T20:15:05.265Z,50.83
2019-04-07T20:17:58.377Z,51.83
2019-04-07T20:20:46.532Z,63.67
2019-04-07T20:23:39.362Z,45.60
2019-04-07T20:26:24.710Z,35.80
2019-04-07T20:29:34.117Z,33.73
2019-04-07T20:32:25.283Z,34.47
2019-04-07T20:35:12.287Z,32.97
2019-04-07T20:38:00.689Z,34.50
2019-04-07T20:40:42.703Z,34.60
2019-04-07T20:43:17.568Z,34.10
2019-04-07T20:45:56.831Z,33.47
2019-04-07T20:48:49.661Z,33.47
2019-04-07T20:51:25.795Z,34.07
2019-04-07T20:54:06.034Z,33.73
2019-04-07T20:56:47.145Z,34.73
2019-04-07T20:59:48.649Z,34.80
2019-04-07T21:02:29.226Z,44.17
2019-04-07T21:05:16.151Z,43.57
2019-04-07T21:07:54.828Z,62.97
2019-04-07T21:10:42.686Z,50.67
2019-04-07T21:13:30.076Z,37.83
2019-04-07T21:16:08.949Z,38.83
2019-04-07T21:18:59.131Z,37.70
2019-04-07T21:21:46.781Z,37.43
2019-04-07T21:24:23.460Z,35.83
2019-04-07T21:27:01.562Z,37.83
2019-04-07T21:29:50.631Z,37.17
2019-04-07T21:32:37.110Z,43.73
2019-04-07T21:35:13.074Z,37.97
2019-04-07T21:37:56.738Z,37.37
2019-04-07T21:40:45.887Z,36.67
2019-04-07T21:43:37.346Z,37.00
2019-04-07T21:46:22.427Z,36.87
2019-04-07T21:49:13.909Z,36.23
2019-04-07T21:51:50.282Z,36.77
2019-04-07T21:54:30.734Z,35.77
2019-04-07T21:57:11.093Z,37.50
2019-04-07T21:59:48.449Z,38.70
2019-04-07T22:02:47.871Z,37.10
2019-04-07T22:05:25.662Z,37.10
2019-04-07T22:08:03.729Z,36.17
2019-04-07T22:10:30.770Z,36.70
2019-04-07T22:13:03.798Z,38.33
2019-04-07T22:15:45.074Z,41.43
2019-04-07T22:18:07.560Z,39.67
2019-04-07T22:20:34.923Z,38.93
2019-04-07T22:23:09.202Z,36.67
2019-04-07T22:25:48.316Z,37.43
2019-04-07T22:28:18.467Z,36.60
2019-04-07T22:30:48.766Z,37.93
2019-04-07T22:33:22.899Z,36.60
2019-04-07T22:35:51.309Z,36.20
2019-04-07T22:38:23.259Z,40.10
2019-04-07T22:40:52.356Z,38.83
2019-04-07T22:43:22.888Z,36.70
2019-04-07T22:45:59.282Z,37.17
2019-04-07T22:48:26.710Z,37.47
2019-04-07T22:50:55.907Z,37.77
2019-04-07T22:53:28.455Z,39.00
2019-04-07T22:55:58.986Z,38.13
2019-04-07T22:58:29.737Z,36.23
2019-04-07T23:01:00.623Z,36.53
2019-04-07T23:03:31.280Z,37.17
2019-04-07T23:06:01.027Z,37.93
2019-04-07T23:08:30.376Z,38.23
2019-04-07T23:11:00.126Z,39.10
2019-04-07T23:13:30.035Z,39.97
2019-04-07T23:16:09.477Z,38.20
2019-04-07T23:18:30.705Z,39.73
2019-04-07T23:21:01.269Z,38.60
2019-04-07T23:23:32.228Z,38.10
2019-04-07T23:26:01.940Z,47.17
2019-04-07T23:28:32.644Z,43.40
2019-04-07T23:31:02.137Z,40.00
2019-04-07T23:33:31.924Z,39.43
2019-04-07T23:36:01.818Z,38.37
2019-04-07T23:38:33.755Z,39.60
2019-04-07T23:41:03.292Z,40.30
2019-04-07T23:43:33.269Z,39.60
2019-04-07T23:46:04.993Z,40.57
2019-04-07T23:48:34.772Z,44.10
2019-04-07T23:51:04.610Z,42.80
2019-04-07T23:54:11.761Z,40.77
2019-04-07T23:56:43.623Z,41.23
2019-04-07T23:59:14.645Z,40.57
